Time;durP1;ratioP1;P1;durP2;ratioP2;P2;SDS_P1;SDS_P2;PMS_P1;PMS_P2;Temp;Humidity;BMP_temperature;BMP_pressure;BME280_temperature;BME280_humidity;BME280_pressure;Samples;Min_cycle;Max_cycle;Signal;HPM_P1;HPM_P2
2022/06/19 00:00:49;;;;;;;3.92;2.20;;;19.90;10.40;;;;;;5071487;28;34499;-76
2022/06/19 00:03:24;;;;;;;8.38;2.70;;;19.90;10.50;;;;;;5088266;28;35501;-76
2022/06/19 00:05:50;;;;;;;8.20;2.20;;;19.80;11.80;;;;;;5087834;28;34190;-76
2022/06/19 00:08:16;;;;;;;5.85;2.50;;;19.80;10.50;;;;;;5082104;28;34369;-75
2022/06/19 00:10:42;;;;;;;7.95;2.15;;;19.80;10.70;;;;;;5086733;28;34262;-75
2022/06/19 00:13:08;;;;;;;12.65;2.83;;;19.70;10.90;;;;;;5077260;28;35611;-76
2022/06/19 00:15:34;;;;;;;11.45;2.60;;;19.70;10.80;;;;;;5068221;28;34288;-76
2022/06/19 00:18:00;;;;;;;9.88;2.88;;;19.70;10.90;;;;;;5087371;28;34166;-76
2022/06/19 00:20:26;;;;;;;8.52;2.55;;;19.60;10.90;;;;;;5070936;28;34055;-75
2022/06/19 00:22:52;;;;;;;7.60;2.55;;;19.60;11.10;;;;;;5059746;28;35801;-76
2022/06/19 00:25:18;;;;;;;6.38;2.30;;;19.50;11.10;;;;;;5070301;28;34250;-76
2022/06/19 00:27:44;;;;;;;7.78;2.47;;;19.50;11.20;;;;;;5054937;28;34163;-76
2022/06/19 00:30:12;;;;;;;9.65;2.20;;;19.50;11.30;;;;;;5074889;28;34571;-76
2022/06/19 00:32:39;;;;;;;9.73;2.60;;;19.40;11.70;;;;;;5108647;27;34411;-75
2022/06/19 00:35:05;;;;;;;7.97;2.50;;;19.40;11.40;;;;;;5090853;28;34295;-75
2022/06/19 00:37:33;;;;;;;7.72;2.50;;;19.40;11.50;;;;;;5091113;28;34128;-75
2022/06/19 00:39:59;;;;;;;9.20;2.65;;;19.30;11.60;;;;;;5074928;28;34060;-75
2022/06/19 00:42:26;;;;;;;5.97;2.05;;;19.30;11.70;;;;;;5108525;28;34313;-75
2022/06/19 00:44:53;;;;;;;6.47;2.67;;;19.30;12.30;;;;;;5091205;28;34274;-75
2022/06/19 00:47:22;;;;;;;7.43;2.45;;;19.20;11.70;;;;;;5080598;28;34243;-75
2022/06/19 00:49:59;;;;;;;3.35;2.13;;;19.30;12.00;;;;;;5083153;28;34277;-76
2022/06/19 00:52:30;;;;;;;8.77;2.40;;;19.20;13.20;;;;;;5073928;28;36793;-76
2022/06/19 00:55:09;;;;;;;7.95;2.58;;;19.20;12.20;;;;;;5109545;27;34132;-75
2022/06/19 00:57:38;;;;;;;6.35;2.35;;;19.10;14.00;;;;;;5097795;28;34114;-76
2022/06/19 01:00:11;;;;;;;10.30;2.88;;;19.10;12.50;;;;;;5091294;28;34154;-76
2022/06/19 01:02:40;;;;;;;8.70;2.30;;;19.00;12.90;;;;;;5125738;27;34504;-76
2022/06/19 01:05:09;;;;;;;7.38;2.22;;;19.00;12.40;;;;;;5127444;27;34238;-76
2022/06/19 01:07:35;;;;;;;15.45;2.70;;;19.00;12.20;;;;;;5127950;27;34101;-76
2022/06/19 01:10:02;;;;;;;7.07;2.33;;;18.90;12.30;;;;;;5128713;27;34154;-76
2022/06/19 01:12:29;;;;;;;5.70;2.70;;;18.90;12.30;;;;;;5110109;27;35847;-76
2022/06/19 01:15:01;;;;;;;6.15;2.60;;;18.90;12.50;;;;;;5107319;28;34166;-76
2022/06/19 01:17:28;;;;;;;9.80;2.42;;;18.80;13.40;;;;;;5106963;27;34359;-76
2022/06/19 01:19:54;;;;;;;6.82;2.53;;;18.80;12.70;;;;;;5108598;27;34128;-76
2022/06/19 01:22:41;;;;;;;8.93;2.65;;;18.70;12.80;;;;;;5109147;27;36432;-76
2022/06/19 01:25:13;;;;;;;8.18;2.30;;;18.70;15.60;;;;;;5110381;27;34105;-76
2022/06/19 01:30:29;;;;;;;5.60;2.08;;;18.60;13.90;;;;;;5128797;27;34166;-76
2022/06/19 01:32:57;;;;;;;5.32;2.60;;;18.60;13.00;;;;;;5110102;27;35532;-76
2022/06/19 01:35:25;;;;;;;8.73;2.25;;;18.60;13.10;;;;;;5126380;27;34371;-76
2022/06/19 01:37:52;;;;;;;6.45;2.40;;;18.60;13.10;;;;;;5127962;27;34162;-76
2022/06/19 01:40:22;;;;;;;5.80;2.88;;;18.50;13.20;;;;;;5110529;27;34012;-76
2022/06/19 01:42:49;;;;;;;9.77;2.47;;;18.50;13.40;;;;;;5124631;27;35610;-76
2022/06/19 01:45:16;;;;;;;7.78;2.78;;;18.50;13.30;;;;;;5123795;27;34218;-76
2022/06/19 01:47:43;;;;;;;14.43;2.95;;;18.40;13.30;;;;;;5107244;27;34223;-76
2022/06/19 01:50:13;;;;;;;10.15;2.47;;;18.40;13.40;;;;;;5089648;28;34121;-76
2022/06/19 01:52:39;;;;;;;5.18;2.60;;;18.40;13.70;;;;;;5115457;27;35935;-76
2022/06/19 01:55:13;;;;;;;7.20;2.53;;;18.40;13.50;;;;;;5123590;27;34233;-76
2022/06/19 01:57:46;;;;;;;4.97;2.67;;;18.40;13.80;;;;;;5127658;27;34337;-76
2022/06/19 02:00:19;;;;;;;9.15;2.90;;;18.40;13.70;;;;;;5129343;27;34631;-76
2022/06/19 02:02:51;;;;;;;13.50;2.85;;;18.40;14.20;;;;;;5126702;27;35955;-76
2022/06/19 02:05:18;;;;;;;7.50;2.58;;;18.30;13.90;;;;;;5096883;27;34227;-76
2022/06/19 02:07:48;;;;;;;6.97;2.33;;;18.30;13.70;;;;;;5124175;27;34163;-76
2022/06/19 02:10:15;;;;;;;8.23;2.85;;;18.30;13.90;;;;;;5109946;27;34599;-76
2022/06/19 02:12:41;;;;;;;8.63;2.80;;;18.30;13.80;;;;;;5133266;27;35608;-76
2022/06/19 02:15:09;;;;;;;5.30;2.30;;;18.20;13.80;;;;;;5126585;27;34235;-76
2022/06/19 02:17:41;;;;;;;8.15;2.83;;;18.20;14.00;;;;;;5127216;27;34131;-76
2022/06/19 02:20:08;;;;;;;5.07;2.17;;;18.20;14.10;;;;;;5127000;27;34097;-76
2022/06/19 02:22:34;;;;;;;7.00;2.40;;;18.10;13.90;;;;;;5126302;27;35518;-76
2022/06/19 02:25:02;;;;;;;6.63;2.40;;;18.10;13.90;;;;;;5108804;27;34249;-76
2022/06/19 02:27:31;;;;;;;7.30;2.30;;;18.00;14.00;;;;;;5114936;27;34390;-76
2022/06/19 02:33:24;;;;;;;8.73;2.47;;;18.00;17.00;;;;;;5121444;27;34070;-76
2022/06/19 02:35:50;;;;;;;11.80;2.75;;;18.00;14.70;;;;;;5108989;27;34192;-76
2022/06/19 02:38:18;;;;;;;8.52;3.15;;;18.00;14.20;;;;;;5109050;27;34058;-76
2022/06/19 02:40:59;;;;;;;5.75;2.70;;;17.90;14.50;;;;;;5109661;27;34086;-76
2022/06/19 02:43:30;;;;;;;6.57;2.72;;;17.90;16.60;;;;;;5108830;27;35930;-76
2022/06/19 02:45:56;;;;;;;8.30;2.72;;;17.90;15.20;;;;;;5091686;27;34130;-76
2022/06/19 02:48:26;;;;;;;5.05;2.72;;;17.80;14.70;;;;;;5090911;27;34100;-76
2022/06/19 02:50:54;;;;;;;4.50;2.40;;;17.70;15.00;;;;;;5086816;28;34178;-76
2022/06/19 02:53:20;;;;;;;5.15;2.97;;;17.80;14.90;;;;;;5099177;27;34153;-76
2022/06/19 02:55:47;;;;;;;4.55;2.30;;;17.70;14.90;;;;;;5087956;28;34178;-76
2022/06/19 02:58:14;;;;;;;10.48;2.60;;;17.70;15.10;;;;;;5071156;28;34212;-76
2022/06/19 03:00:41;;;;;;;8.77;2.38;;;17.70;15.00;;;;;;5089930;27;34140;-76
2022/06/19 03:03:13;;;;;;;5.85;2.60;;;17.70;15.10;;;;;;5108208;27;36217;-77
2022/06/19 03:05:39;;;;;;;8.20;2.92;;;17.70;15.30;;;;;;5108100;27;34149;-76
2022/06/19 03:08:05;;;;;;;9.35;2.53;;;17.70;15.10;;;;;;5095313;28;34285;-76
2022/06/19 03:10:31;;;;;;;7.88;2.47;;;17.70;15.10;;;;;;5087556;28;34547;-76
2022/06/19 03:12:58;;;;;;;5.97;2.78;;;17.60;15.30;;;;;;5105182;28;35234;-76
2022/06/19 03:15:25;;;;;;;5.07;2.50;;;17.60;15.40;;;;;;5090624;28;34076;-77
2022/06/19 03:17:51;;;;;;;6.35;2.42;;;17.50;15.30;;;;;;5106825;28;34142;-76
2022/06/19 03:20:20;;;;;;;6.10;2.70;;;17.50;15.40;;;;;;5106484;28;34336;-76
2022/06/19 03:22:47;;;;;;;4.63;2.55;;;17.50;15.70;;;;;;5070327;28;35914;-76
2022/06/19 03:25:13;;;;;;;6.40;2.70;;;17.50;15.50;;;;;;5102320;27;34264;-76
2022/06/19 03:27:39;;;;;;;5.88;2.85;;;17.50;15.60;;;;;;5107806;27;34240;-76
2022/06/19 03:30:06;;;;;;;7.53;3.30;;;17.50;15.60;;;;;;5107939;27;34178;-76
2022/06/19 03:32:32;;;;;;;4.68;2.88;;;17.50;15.60;;;;;;5125512;27;34615;-76
2022/06/19 03:34:58;;;;;;;5.22;2.80;;;17.40;15.70;;;;;;5108709;27;34177;-77
2022/06/19 03:37:24;;;;;;;8.95;2.67;;;17.40;15.70;;;;;;5074434;27;34187;-76
2022/06/19 03:39:51;;;;;;;9.82;3.25;;;17.40;15.80;;;;;;5108092;27;34508;-76
2022/06/19 03:42:17;;;;;;;5.35;2.85;;;17.40;15.80;;;;;;5107679;27;35581;-77
2022/06/19 03:44:43;;;;;;;4.70;2.85;;;17.40;15.80;;;;;;5090811;27;34268;-77
2022/06/19 03:47:10;;;;;;;4.47;2.90;;;17.40;15.90;;;;;;5127182;27;34236;-77
2022/06/19 03:49:36;;;;;;;7.72;3.20;;;17.40;15.90;;;;;;5107950;27;34443;-76
2022/06/19 03:52:02;;;;;;;10.55;3.50;;;17.40;16.00;;;;;;5107785;27;35879;-77
2022/06/19 03:54:28;;;;;;;6.72;2.53;;;17.40;16.10;;;;;;5090539;27;34154;-76
2022/06/19 03:56:54;;;;;;;6.63;3.00;;;17.40;16.00;;;;;;5107536;27;34109;-76
2022/06/19 03:59:20;;;;;;;5.30;2.85;;;17.50;16.10;;;;;;5106745;27;34098;-77
2022/06/19 04:01:46;;;;;;;10.07;3.50;;;17.50;16.70;;;;;;5107551;27;34742;-76
2022/06/19 04:04:12;;;;;;;7.05;2.95;;;17.50;16.10;;;;;;5089687;27;34171;-76
2022/06/19 04:06:41;;;;;;;9.65;3.20;;;17.60;16.10;;;;;;5106699;27;34269;-77
2022/06/19 04:09:10;;;;;;;6.18;2.90;;;17.60;16.40;;;;;;5093160;28;34100;-77
2022/06/19 04:11:36;;;;;;;5.03;2.88;;;17.70;16.20;;;;;;5080587;27;35827;-76
2022/06/19 04:14:02;;;;;;;9.35;2.97;;;17.60;16.20;;;;;;5092101;28;34436;-77
2022/06/19 04:16:31;;;;;;;7.90;3.00;;;17.70;16.20;;;;;;5087399;28;34324;-76
2022/06/19 04:18:59;;;;;;;12.07;3.10;;;17.80;16.60;;;;;;5087408;28;34112;-77
2022/06/19 04:21:28;;;;;;;5.40;3.00;;;17.80;16.30;;;;;;5088120;28;34093;-77
2022/06/19 04:23:57;;;;;;;6.72;3.15;;;17.80;16.50;;;;;;5107229;27;34296;-76
2022/06/19 04:26:24;;;;;;;8.20;2.97;;;17.90;16.40;;;;;;5091664;27;34111;-77
2022/06/19 04:28:50;;;;;;;7.95;2.95;;;17.90;16.30;;;;;;5108220;27;34189;-77
2022/06/19 04:31:17;;;;;;;6.05;3.00;;;18.00;16.30;;;;;;5108065;27;34771;-76
2022/06/19 04:33:43;;;;;;;6.72;3.25;;;18.10;16.30;;;;;;5125419;27;34418;-77
2022/06/19 04:36:12;;;;;;;5.30;2.88;;;18.10;16.30;;;;;;5099423;28;34239;-77
2022/06/19 04:38:40;;;;;;;8.52;3.05;;;18.20;16.50;;;;;;5112332;27;34113;-76
2022/06/19 04:41:13;;;;;;;8.27;3.22;;;18.20;16.30;;;;;;5082820;28;35913;-77
2022/06/19 04:43:39;;;;;;;10.75;3.45;;;18.30;17.40;;;;;;5070296;28;34040;-76
2022/06/19 04:46:08;;;;;;;7.05;3.20;;;18.40;16.20;;;;;;5070708;27;34204;-77
2022/06/19 04:48:35;;;;;;;6.70;3.03;;;18.50;16.70;;;;;;5104262;28;34382;-76
2022/06/19 04:51:05;;;;;;;6.38;3.00;;;18.60;16.10;;;;;;5091004;28;35563;-76
2022/06/19 04:53:32;;;;;;;5.63;3.00;;;18.60;16.60;;;;;;5104975;27;34056;-76
2022/06/19 04:55:59;;;;;;;5.28;3.08;;;18.70;16.10;;;;;;5091589;27;34384;-77
2022/06/19 04:58:25;;;;;;;5.85;3.60;;;18.90;16.00;;;;;;5108325;27;34510;-77
2022/06/19 05:00:53;;;;;;;4.18;3.15;;;18.90;16.00;;;;;;5106992;27;35735;-77
2022/06/19 05:03:21;;;;;;;4.30;2.95;;;19.10;16.00;;;;;;5105959;28;34199;-77
2022/06/19 05:05:47;;;;;;;6.35;3.58;;;19.20;15.90;;;;;;5088496;28;34045;-76
2022/06/19 05:08:14;;;;;;;8.48;3.90;;;19.30;15.90;;;;;;5088188;28;34358;-77
2022/06/19 05:10:41;;;;;;;11.93;3.88;;;19.40;15.80;;;;;;5108279;27;34424;-77
2022/06/19 05:13:17;;;;;;;8.63;3.55;;;19.50;15.60;;;;;;5092979;28;34153;-77
2022/06/19 05:15:44;;;;;;;11.82;3.60;;;19.70;16.70;;;;;;5086687;27;34245;-76
2022/06/19 05:18:11;;;;;;;10.57;3.78;;;19.90;15.40;;;;;;5091941;27;34151;-77
2022/06/19 05:20:37;;;;;;;11.50;3.67;;;20.10;15.10;;;;;;5094003;27;35313;-77
2022/06/19 05:23:05;;;;;;;10.82;4.10;;;20.40;14.90;;;;;;5112717;27;34164;-77
2022/06/19 05:25:31;;;;;;;6.97;3.30;;;20.90;14.40;;;;;;5091910;28;34086;-77
2022/06/19 05:28:22;;;;;;;9.13;3.38;;;21.50;13.70;;;;;;5108088;27;34186;-78
2022/06/19 05:30:48;;;;;;;6.88;3.15;;;22.40;14.70;;;;;;5089374;27;35658;-78
2022/06/19 05:33:14;;;;;;;7.97;3.10;;;23.00;11.70;;;;;;5065813;28;34114;-78
2022/06/19 05:35:40;;;;;;;5.03;2.95;;;23.60;10.70;;;;;;5093661;27;34370;-77
2022/06/19 05:38:06;;;;;;;7.97;3.05;;;24.20;9.90;;;;;;5108951;27;34079;-77
2022/06/19 05:40:34;;;;;;;5.70;2.97;;;24.70;9.10;;;;;;5074980;28;35930;-77
2022/06/19 05:43:03;;;;;;;9.23;3.42;;;25.10;8.40;;;;;;5110243;27;34021;-77
2022/06/19 05:45:29;;;;;;;5.40;2.58;;;25.50;7.90;;;;;;5128175;27;34105;-78
2022/06/19 05:47:54;;;;;;;11.95;3.30;;;25.80;7.10;;;;;;5112069;27;34240;-78
2022/06/19 05:50:20;;;;;;;7.40;3.72;;;26.20;6.70;;;;;;5131840;27;34392;-77
2022/06/19 05:52:46;;;;;;;9.80;3.50;;;26.50;5.80;;;;;;5087308;27;34173;-77
2022/06/19 05:55:13;;;;;;;9.18;3.22;;;26.70;5.00;;;;;;5120112;27;34258;-76
2022/06/19 05:57:45;;;;;;;15.30;3.03;;;26.90;4.40;;;;;;5111595;27;34082;-78
2022/06/19 06:00:12;;;;;;;9.10;3.35;;;27.30;3.40;;;;;;5129798;27;36004;-78
2022/06/19 06:02:37;;;;;;;9.60;3.00;;;27.40;4.10;;;;;;5103465;28;34236;-78
2022/06/19 06:05:09;;;;;;;7.82;3.08;;;27.60;3.90;;;;;;5107932;28;34086;-79
2022/06/19 06:07:38;;;;;;;8.45;2.80;;;27.90;2.50;;;;;;5102708;27;34172;-78
2022/06/19 06:10:05;;;;;;;11.27;2.72;;;28.30;3.30;;;;;;5127457;27;35833;-78
2022/06/19 06:15:15;;;;;;;14.77;3.45;;;29.10;2.90;;;;;;5128426;27;34283;-78
2022/06/19 06:17:41;;;;;;;7.82;3.30;;;29.60;2.00;;;;;;5128354;27;34082;-78
2022/06/19 06:20:07;;;;;;;11.00;3.30;;;29.90;1.40;;;;;;5127749;27;36037;-78
2022/06/19 06:22:33;;;;;;;6.47;3.15;;;30.10;1.40;;;;;;5115690;27;34248;-78
2022/06/19 06:24:59;;;;;;;7.78;3.42;;;30.30;1.10;;;;;;5128845;27;34174;-77
2022/06/19 06:27:24;;;;;;;7.15;3.17;;;30.40;1.00;;;;;;5111222;27;34126;-77
2022/06/19 06:29:50;;;;;;;7.75;3.83;;;30.40;1.00;;;;;;5110022;27;35555;-78
2022/06/19 06:32:16;;;;;;;8.35;3.40;;;30.40;1.00;;;;;;5128386;27;34285;-78
2022/06/19 06:34:42;;;;;;;8.10;3.88;;;30.40;1.00;;;;;;5103446;27;34437;-78
2022/06/19 06:37:08;;;;;;;7.80;3.50;;;30.50;1.00;;;;;;5120324;27;34332;-78
2022/06/19 06:39:34;;;;;;;5.95;3.40;;;30.30;1.00;;;;;;5110234;27;36008;-78
2022/06/19 06:42:00;;;;;;;8.57;3.55;;;30.30;1.00;;;;;;5109775;27;34364;-78
2022/06/19 06:44:26;;;;;;;8.00;3.00;;;30.10;1.00;;;;;;5128265;27;34428;-78
2022/06/19 06:46:52;;;;;;;12.82;3.45;;;30.10;1.00;;;;;;5128290;27;34171;-78
2022/06/19 06:49:18;;;;;;;8.52;3.85;;;29.90;1.00;;;;;;5127757;27;36338;-78
2022/06/19 06:51:44;;;;;;;13.48;4.43;;;29.80;1.00;;;;;;5117308;27;34412;-79
2022/06/19 06:54:09;;;;;;;10.63;3.55;;;29.70;1.00;;;;;;5125262;27;34326;-77
2022/06/19 06:56:35;;;;;;;7.32;3.10;;;29.80;1.00;;;;;;5127070;27;33875;-77
2022/06/19 06:59:02;;;;;;;8.65;3.38;;;29.80;1.00;;;;;;5126282;27;35476;-79
2022/06/19 07:01:29;;;;;;;14.73;3.60;;;29.90;1.00;;;;;;5109861;27;34169;-78
2022/06/19 07:03:55;;;;;;;5.55;3.17;;;29.60;1.00;;;;;;5127230;27;34183;-77
2022/06/19 07:06:24;;;;;;;5.57;3.25;;;29.50;1.00;;;;;;5126822;27;34244;-77
2022/06/19 07:08:49;;;;;;;9.65;3.67;;;29.70;1.00;;;;;;5127365;27;35982;-78
2022/06/19 07:11:21;;;;;;;8.48;3.85;;;29.90;1.00;;;;;;5126654;27;34146;-77
2022/06/19 07:13:47;;;;;;;7.80;3.47;;;29.90;1.00;;;;;;5109053;27;34272;-78
2022/06/19 07:16:13;;;;;;;10.15;3.33;;;29.90;1.00;;;;;;5112787;27;33828;-78
2022/06/19 07:18:38;;;;;;;14.50;4.00;;;29.80;1.00;;;;;;5126782;27;36367;-78
2022/06/19 07:21:05;;;;;;;10.43;4.20;;;29.70;1.00;;;;;;5128723;27;33832;-78
2022/06/19 07:23:31;;;;;;;8.50;3.88;;;29.50;1.00;;;;;;5126824;27;34255;-78
2022/06/19 07:25:56;;;;;;;7.75;3.90;;;29.40;1.00;;;;;;5127501;27;34156;-78
2022/06/19 07:28:22;;;;;;;12.15;3.75;;;29.30;1.30;;;;;;5126961;27;35441;-78
2022/06/19 07:30:48;;;;;;;9.45;3.75;;;29.40;1.30;;;;;;5110955;27;34191;-78
2022/06/19 07:33:14;;;;;;;8.75;3.40;;;29.80;1.00;;;;;;5110153;27;34312;-80
2022/06/19 07:35:41;;;;;;;3.72;3.17;;;30.00;1.00;;;;;;5093200;27;34517;-78
2022/06/19 07:38:07;;;;;;;9.05;3.38;;;30.40;1.00;;;;;;5100018;28;35658;-78
2022/06/19 07:40:33;;;;;;;6.88;3.65;;;30.70;1.00;;;;;;5095177;27;34562;-78
2022/06/19 07:43:00;;;;;;;5.57;3.38;;;30.90;1.00;;;;;;5128010;27;34310;-80
2022/06/19 07:45:26;;;;;;;5.18;3.78;;;31.20;1.00;;;;;;5126413;27;34196;-81
2022/06/19 07:50:33;;;;;;;7.43;3.40;;;31.60;1.00;;;;;;5127633;27;34421;-79
2022/06/19 07:52:59;;;;;;;6.50;3.55;;;31.70;1.00;;;;;;5128448;27;34253;-77
2022/06/19 07:55:30;;;;;;;6.15;3.55;;;31.80;1.00;;;;;;5130438;27;34320;-80
2022/06/19 07:58:00;;;;;;;8.65;3.30;;;32.00;1.00;;;;;;5128169;27;36282;-81
2022/06/19 08:00:30;;;;;;;7.65;3.67;;;32.10;1.00;;;;;;5102268;28;34301;-79
2022/06/19 08:02:57;;;;;;;10.43;3.75;;;32.30;1.00;;;;;;5107350;27;34042;-79
2022/06/19 08:05:25;;;;;;;6.88;3.47;;;32.40;1.00;;;;;;5107951;28;34252;-81
2022/06/19 08:07:52;;;;;;;6.05;3.38;;;32.60;1.00;;;;;;5089879;28;35589;-77
2022/06/19 08:10:22;;;;;;;8.50;3.55;;;32.80;1.00;;;;;;5116784;27;34263;-78
2022/06/19 08:12:58;;;;;;;10.45;4.00;;;33.10;1.00;;;;;;5106360;28;34146;-82
2022/06/19 08:15:24;;;;;;;7.00;3.65;;;33.30;1.00;;;;;;5125358;27;34432;-79
2022/06/19 08:17:51;;;;;;;6.40;3.92;;;33.50;1.00;;;;;;5107376;27;36119;-80
2022/06/19 08:20:19;;;;;;;9.63;3.30;;;33.40;1.00;;;;;;5126199;27;33762;-81
2022/06/19 08:22:48;;;;;;;5.35;3.17;;;33.50;1.00;;;;;;5126915;27;34432;-77
2022/06/19 08:25:15;;;;;;;7.80;3.08;;;33.60;1.00;;;;;;5126760;27;34270;-79
2022/06/19 08:27:43;;;;;;;4.45;2.72;;;33.40;1.00;;;;;;5128845;27;34245;-79
2022/06/19 08:30:14;;;;;;;9.43;2.95;;;33.40;1.00;;;;;;5126391;27;34172;-77
2022/06/19 08:32:39;;;;;;;4.40;2.40;;;33.10;1.00;;;;;;5090854;28;34294;-81
2022/06/19 08:35:06;;;;;;;10.43;2.80;;;33.00;1.00;;;;;;5114850;27;34276;-79
2022/06/19 08:37:34;;;;;;;8.27;2.88;;;33.00;1.00;;;;;;5107065;27;35951;-81
2022/06/19 08:40:00;;;;;;;9.52;2.50;;;32.90;1.00;;;;;;5124785;27;34197;-79
2022/06/19 08:42:56;;;;;;;9.77;2.70;;;32.80;1.00;;;;;;5126457;27;34084;-79
2022/06/19 08:45:32;;;;;;;7.68;3.00;;;32.70;1.00;;;;;;5127233;27;34059;-76
2022/06/19 08:48:19;;;;;;;7.10;2.85;;;32.70;1.00;;;;;;5130722;27;34333;-78
2022/06/19 08:50:55;;;;;;;5.60;2.67;;;32.60;1.00;;;;;;5130693;27;34229;-80
2022/06/19 08:53:44;;;;;;;5.88;2.45;;;32.40;1.00;;;;;;5113941;27;34232;-77
2022/06/19 08:56:21;;;;;;;6.28;3.30;;;32.30;1.00;;;;;;5131832;27;34026;-80
2022/06/19 08:59:12;;;;;;;10.48;3.40;;;32.30;1.00;;;;;;5113819;27;36820;-77
2022/06/19 09:01:52;;;;;;;5.38;3.05;;;32.50;1.00;;;;;;5123225;27;34136;-77
2022/06/19 09:07:40;;;;;;;4.38;3.00;;;32.40;1.00;;;;;;5115450;27;34232;-79
2022/06/19 09:10:23;;;;;;;6.75;3.40;;;32.50;1.00;;;;;;5112007;27;34653;-78
2022/06/19 09:13:11;;;;;;;5.07;2.70;;;32.40;1.00;;;;;;5110099;27;33989;-80
2022/06/19 09:16:00;;;;;;;4.90;3.13;;;32.20;1.00;;;;;;5108946;27;34079;-78
2022/06/19 09:18:48;;;;;;;5.40;2.90;;;32.20;1.00;;;;;;5069739;28;34143;-78
2022/06/19 09:21:42;;;;;;;5.78;3.10;;;32.20;1.00;;;;;;5089369;28;34196;-77
2022/06/19 09:24:37;;;;;;;6.93;3.38;;;32.30;1.00;;;;;;5090739;28;34396;-78
2022/06/19 09:27:03;;;;;;;11.73;3.35;;;32.50;1.00;;;;;;5108630;27;34190;-79
2022/06/19 09:29:42;;;;;;;4.43;3.03;;;32.60;1.00;;;;;;5089824;28;34585;-77
2022/06/19 09:32:17;;;;;;;10.85;3.15;;;32.60;1.00;;;;;;5106651;28;35411;-78
2022/06/19 09:34:58;;;;;;;12.05;3.22;;;32.40;1.00;;;;;;5090795;28;34571;-80
2022/06/19 09:37:31;;;;;;;6.93;2.88;;;32.30;1.00;;;;;;5090628;28;34119;-78
2022/06/19 09:40:07;;;;;;;6.50;3.05;;;32.40;1.00;;;;;;5073897;28;34418;-79
2022/06/19 09:42:51;;;;;;;4.25;2.63;;;32.30;1.00;;;;;;5073026;28;36288;-78
2022/06/19 09:45:25;;;;;;;5.25;2.80;;;32.60;1.00;;;;;;5089816;28;34324;-77
2022/06/19 09:48:22;;;;;;;8.45;3.13;;;32.60;1.00;;;;;;5089062;28;34376;-77
2022/06/19 09:50:59;;;;;;;9.18;3.35;;;32.50;1.00;;;;;;5114624;27;34157;-79
2022/06/19 09:53:55;;;;;;;6.95;2.90;;;32.40;1.00;;;;;;5112711;27;35888;-78
2022/06/19 09:56:42;;;;;;;9.25;3.00;;;32.30;1.00;;;;;;5127439;27;34189;-78
2022/06/19 09:59:38;;;;;;;5.43;3.00;;;32.40;1.00;;;;;;5129958;27;34384;-78
2022/06/19 10:02:11;;;;;;;6.15;3.08;;;32.50;1.00;;;;;;5127860;27;33894;-79
2022/06/19 10:04:44;;;;;;;5.95;3.00;;;32.60;1.00;;;;;;5110870;27;36652;-78
2022/06/19 10:07:29;;;;;;;4.07;2.85;;;32.80;1.00;;;;;;5128304;27;34282;-78
2022/06/19 10:10:03;;;;;;;6.30;3.28;;;33.10;1.00;;;;;;5112210;27;34070;-78
2022/06/19 10:12:38;;;;;;;7.05;2.90;;;33.30;1.00;;;;;;5113755;27;34509;-78
2022/06/19 10:15:13;;;;;;;4.50;2.80;;;33.30;1.00;;;;;;5123377;27;36512;-77
2022/06/19 10:17:55;;;;;;;7.03;2.60;;;33.30;1.00;;;;;;5108582;27;34722;-78
2022/06/19 10:20:38;;;;;;;4.55;2.58;;;33.30;1.00;;;;;;5128671;27;34238;-78
2022/06/19 10:23:26;;;;;;;5.32;3.25;;;33.40;1.00;;;;;;5124156;27;34185;-77
2022/06/19 10:26:07;;;;;;;7.82;3.00;;;33.50;1.00;;;;;;5116352;27;35207;-78
2022/06/19 10:29:08;;;;;;;3.53;2.63;;;33.50;1.00;;;;;;5116294;27;34098;-78
2022/06/19 10:31:55;;;;;;;4.28;2.72;;;33.50;1.00;;;;;;5128431;27;34037;-79
2022/06/19 10:34:54;;;;;;;5.45;2.85;;;33.70;1.00;;;;;;5136769;27;34242;-78
2022/06/19 10:37:50;;;;;;;6.05;2.88;;;34.00;1.00;;;;;;5112566;27;36783;-79
2022/06/19 10:40:32;;;;;;;5.60;2.75;;;34.40;1.00;;;;;;5127344;27;34089;-79
2022/06/19 10:43:33;;;;;;;5.82;2.97;;;34.60;1.00;;;;;;5109334;27;34013;-78
2022/06/19 10:46:05;;;;;;;3.60;2.55;;;34.60;1.00;;;;;;5110818;27;34035;-78
2022/06/19 10:48:46;;;;;;;5.55;3.00;;;34.40;1.00;;;;;;5124293;27;34306;-79
2022/06/19 10:51:40;;;;;;;5.97;2.95;;;34.20;1.00;;;;;;5126401;27;33722;-77
2022/06/19 10:54:22;;;;;;;5.82;2.70;;;34.20;1.00;;;;;;5092773;28;34286;-77
2022/06/19 10:57:07;;;;;;;5.10;3.10;;;34.30;1.00;;;;;;5106946;27;34280;-79
2022/06/19 10:59:33;;;;;;;7.32;3.28;;;34.60;1.00;;;;;;5108015;28;34682;-77
2022/06/19 11:05:38;;;;;;;8.02;2.70;;;35.20;1.00;;;;;;5116415;27;34158;-79
2022/06/19 11:08:04;;;;;;;8.70;2.92;;;35.40;1.00;;;;;;5118420;27;34237;-77
2022/06/19 11:10:48;;;;;;;7.57;2.50;;;35.50;1.00;;;;;;5120151;27;34226;-79
2022/06/19 11:13:14;;;;;;;6.85;3.10;;;35.80;1.00;;;;;;5125310;27;34367;-76
2022/06/19 11:15:43;;;;;;;10.90;3.08;;;36.00;1.00;;;;;;5107160;27;34152;-77
2022/06/19 11:18:14;;;;;;;5.03;2.85;;;36.10;1.00;;;;;;5107800;28;34440;-77
2022/06/19 11:20:59;;;;;;;9.88;2.83;;;36.10;1.00;;;;;;5119130;27;36687;-77
2022/06/19 11:23:39;;;;;;;3.60;2.45;;;36.20;1.00;;;;;;5092810;28;34403;-77
2022/06/19 11:26:10;;;;;;;7.68;2.80;;;36.40;1.00;;;;;;5123518;27;34070;-76
2022/06/19 11:28:54;;;;;;;4.57;2.38;;;36.50;1.00;;;;;;5121823;27;34018;-77
2022/06/19 11:31:26;;;;;;;5.28;2.67;;;36.50;1.00;;;;;;5107802;27;35725;-76
2022/06/19 11:33:55;;;;;;;8.02;2.80;;;36.80;1.00;;;;;;5121325;27;34205;-77
2022/06/19 11:36:30;;;;;;;5.20;2.58;;;36.90;1.00;;;;;;5121145;27;34252;-76
2022/06/19 11:38:57;;;;;;;4.00;2.42;;;36.80;1.00;;;;;;5088381;28;34523;-77
2022/06/19 11:41:34;;;;;;;6.00;2.60;;;36.80;1.00;;;;;;5102554;27;35631;-76
2022/06/19 11:44:17;;;;;;;6.65;2.97;;;36.80;1.00;;;;;;5107373;28;34095;-77
2022/06/19 11:46:50;;;;;;;5.25;2.47;;;36.80;1.00;;;;;;5113782;27;34541;-77
2022/06/19 11:49:28;;;;;;;6.28;2.25;;;36.70;1.00;;;;;;5107935;28;34167;-76
2022/06/19 11:51:59;;;;;;;7.70;2.42;;;36.70;1.00;;;;;;5085914;27;35905;-77
2022/06/19 11:54:31;;;;;;;7.53;3.15;;;36.80;1.00;;;;;;5105432;28;34186;-77
2022/06/19 11:57:03;;;;;;;7.15;2.55;;;36.80;1.00;;;;;;5092708;27;34189;-76
2022/06/19 11:59:45;;;;;;;6.43;2.90;;;36.80;1.00;;;;;;5112536;27;34196;-77
2022/06/19 12:02:30;;;;;;;6.43;2.55;;;36.90;1.00;;;;;;5130474;27;34423;-78
2022/06/19 12:04:59;;;;;;;4.78;2.83;;;37.10;1.00;;;;;;5109989;27;34175;-76
2022/06/19 12:07:29;;;;;;;7.25;2.60;;;37.30;1.00;;;;;;5109687;27;34226;-76
2022/06/19 12:10:00;;;;;;;6.70;2.55;;;37.30;1.00;;;;;;5111124;27;34500;-76
2022/06/19 12:12:28;;;;;;;4.72;2.72;;;37.30;1.00;;;;;;5111642;27;35708;-77
2022/06/19 12:15:00;;;;;;;5.18;3.17;;;37.20;1.00;;;;;;5093119;27;34428;-77
2022/06/19 12:17:39;;;;;;;10.55;2.47;;;37.30;1.00;;;;;;5091192;27;34385;-77
2022/06/19 12:20:22;;;;;;;9.65;2.60;;;37.30;1.00;;;;;;5096163;27;34313;-78
2022/06/19 12:22:57;;;;;;;4.75;2.80;;;37.30;1.00;;;;;;5112749;27;35066;-77
2022/06/19 12:25:40;;;;;;;3.30;2.47;;;37.30;1.00;;;;;;5097808;27;34424;-79
2022/06/19 12:28:28;;;;;;;9.73;2.97;;;37.30;1.00;;;;;;5109953;28;34850;-77
2022/06/19 12:31:08;;;;;;;5.72;2.78;;;37.40;1.00;;;;;;5126165;27;34286;-77
2022/06/19 12:33:55;;;;;;;6.97;2.92;;;37.50;1.00;;;;;;5113662;27;34591;-77
2022/06/19 12:36:28;;;;;;;4.25;2.85;;;37.60;1.00;;;;;;5130641;27;34332;-76
2022/06/19 12:38:54;;;;;;;6.05;2.60;;;37.60;1.00;;;;;;5112220;27;33904;-76
2022/06/19 12:41:34;;;;;;;7.60;2.50;;;37.60;1.00;;;;;;5111817;27;34282;-80
2022/06/19 12:44:20;;;;;;;5.90;2.50;;;37.50;1.00;;;;;;5119280;27;35996;-76
2022/06/19 12:47:08;;;;;;;6.28;2.63;;;37.50;1.00;;;;;;5111871;27;34152;-76
2022/06/19 12:50:00;;;;;;;9.02;2.72;;;37.50;1.00;;;;;;5103044;27;34157;-76
2022/06/19 12:52:40;;;;;;;9.05;2.97;;;37.60;1.00;;;;;;5095312;27;34294;-76
2022/06/19 12:55:36;;;;;;;7.28;2.60;;;37.60;1.00;;;;;;5115341;27;35791;-76
2022/06/19 12:58:38;;;;;;;7.60;2.88;;;37.50;1.00;;;;;;5102235;27;34404;-79
2022/06/19 13:01:17;;;;;;;4.13;2.38;;;37.50;1.00;;;;;;5101917;27;34380;-77
2022/06/19 13:04:02;;;;;;;10.07;3.05;;;37.60;1.00;;;;;;5109796;27;34417;-77
2022/06/19 13:06:50;;;;;;;8.45;2.50;;;37.50;1.00;;;;;;5109977;27;36722;-78
2022/06/19 13:09:34;;;;;;;11.45;2.63;;;37.30;1.00;;;;;;5110896;27;34182;-79
2022/06/19 13:12:26;;;;;;;4.05;2.30;;;37.20;1.00;;;;;;5107507;28;34550;-79
2022/06/19 13:15:19;;;;;;;6.95;2.70;;;37.20;1.00;;;;;;5098804;27;34044;-79
2022/06/19 13:18:14;;;;;;;13.63;2.47;;;37.30;1.00;;;;;;5093596;27;35702;-77
2022/06/19 13:20:52;;;;;;;7.65;3.45;;;37.40;1.00;;;;;;5127050;27;34181;-77
2022/06/19 13:23:35;;;;;;;9.15;2.97;;;37.40;1.00;;;;;;5106202;27;34161;-77
2022/06/19 13:29:23;;;;;;;5.88;2.75;;;37.30;1.00;;;;;;5134338;27;34186;-78
2022/06/19 13:31:58;;;;;;;5.22;2.95;;;37.50;1.00;;;;;;5082403;27;34163;-76
2022/06/19 13:34:47;;;;;;;6.93;2.70;;;37.60;1.00;;;;;;5110888;27;34413;-78
2022/06/19 13:37:46;;;;;;;6.43;2.83;;;37.40;1.00;;;;;;5117853;27;34371;-79